CheckWX is a tool to help pilots better visualize weather data.  It is not intended as a substitute for an official pre-flight weather briefing.

17:29:03 UTC

LDOS TAF
Osijek Airport
Osijek, Croatia
TAF LDOS 241125Z 2412/2512 26005KT CAVOK TX21/2413Z TN02/2504Z BECMG 2507/2509 29010KT

Mar-24@
12:00 UTC

Mar-24 @ 12:00 UTC

Mar-25@
07:00 UTC

Mar-25 @ 07:00 UTC

TAF LDOS 241125Z 2412/2512 26005KT CAVOK TX21/2413Z TN02/2504Z
Wind
  • 260° at 5 KTS
Cloud Levels
  • No significant clouds

Mar-25@
07:00 UTC

Mar-25 @ 07:00 UTC

Mar-25@
12:00 UTC

Mar-25 @ 12:00 UTC

BECMG 2507/2509 29010KT

Becoming

Becoming Conditions expected by Mon, Mar 25, 2019 @ 09:00 UTC

Wind
  • 290° at 10 KTS
Cloud Levels
  • No significant clouds